Nyk Orpheus — 7JDN — position and weather

sailwx.info

Track history (hours):
 
Tides and Currents Weather Stations Pressure Air Temp Water Temp Dewpoint Dewpoint Depression Visibility Wind Speed Wind Dir Waves Ship Positions

Nyk Orpheus

Last reported at 2015-Mar-13 02:33 UTC. Time now 2015-Mar-30 20:08 UTC.
Position N 36°29' E 013°58'.
Warning: this ship's position is 17 days out of date.

Length 336 m; draft 11.9 m.

Type: Ship. MMSI: 432657000.

Date/timePositionNaut miles runAvg speedWind from/ knotsBaromVisibWave heightAir tempDewpointWater temp
2015-Mar-13 02:33N 36°29' E 013°58'1818.3
2015-Mar-13 01:33N 36°35' E 013°36'40718.3
2015-Mar-12 03:18N 38°33' E 005°25'1418.1
2015-Mar-12 02:31N 38°36' E 005°08'3818.7
2015-Mar-12 00:29N 38°44' E 004°20'1819.2
2015-Mar-11 23:33N 38°48' E 003°58'1918.6
2015-Mar-11 22:33N 38°52' E 003°34'1918.7
2015-Mar-11 21:33N 38°58' E 003°11'1818.5
2015-Mar-11 20:33N 38°59' E 002°48'1918.6
2015-Mar-11 19:33N 39°03' E 002°24'1818.3
2015-Mar-11 18:33N 39°07' E 002°01'1918.5
2015-Mar-11 17:33N 39°11' E 001°38'1918.8
2015-Mar-11 16:33N 39°14' E 001°14'1818.3
2015-Mar-11 15:33N 39°17' E 000°51'1917.9
2015-Mar-11 14:30N 39°20' E 000°26'1717.8
2015-Mar-11 13:33N 39°23' E 000°05'1515.0
2015-Mar-11 12:34N 39°25' W 000°14'4 4.1
2015-Mar-11 11:34N 39°27' W 000°19'0 0.0
2015-Mar-11 10:32N 39°27' W 000°19'0 0.0
2015-Mar-11 09:32N 39°27' W 000°19'0 0.0
2015-Mar-11 08:32N 39°27' W 000°19'0 0.0
2015-Mar-11 07:32N 39°27' W 000°19'0 0.0
2015-Mar-11 06:32N 39°27' W 000°19'0 0.0
2015-Mar-11 05:32N 39°27' W 000°19'0 0.0
2015-Mar-11 04:32N 39°27' W 000°19'0 0.0
2015-Mar-11 03:32N 39°27' W 000°19'0 0.0
2015-Mar-11 02:32N 39°27' W 000°19'0 0.0
2015-Mar-11 01:32N 39°27' W 000°19'0 0.0
2015-Mar-11 00:32N 39°27' W 000°19'0 0.1
2015-Mar-10 23:32N 39°27' W 000°19'0 0.1
2015-Mar-10 22:32N 39°27' W 000°19'0 0.0
2015-Mar-10 21:32N 39°27' W 000°19'0 0.0
2015-Mar-10 20:32N 39°27' W 000°19'0 0.0
2015-Mar-10 19:32N 39°27' W 000°19'0 0.0
2015-Mar-10 18:32N 39°27' W 000°19'0 0.0
2015-Mar-10 17:32N 39°27' W 000°19'0 0.0
2015-Mar-10 16:32N 39°27' W 000°19'0 0.0
2015-Mar-10 15:32N 39°27' W 000°19'0 0.0
2015-Mar-10 14:32N 39°27' W 000°19'1 1.1
2015-Mar-10 13:33N 39°26' W 000°18'2 2.1
2015-Mar-10 12:33N 39°25' W 000°16'6 6.0
2015-Mar-10 11:33N 39°22' W 000°09'4 2.1
2015-Mar-10 09:28N 39°20' W 000°04'1 0.6
2015-Mar-10 08:10N 39°21' W 000°04'0 0.6
2015-Mar-10 07:31N 39°21' W 000°04'1 0.7
2015-Mar-10 06:25N 39°22' W 000°04'4 0.6
2015-Mar-09 23:16N 39°25' W 000°02'0 0.5
2015-Mar-09 22:31N 39°26' W 000°01'1 0.5
2015-Mar-09 21:10N 39°26' W 000°01'0 0.4
2015-Mar-09 20:17N 39°26' W 000°00'0 0.3
2015-Mar-09 19:04N 39°26' W 000°00'0 0.9
2015-Mar-09 18:31N 39°27' E 000°00'5 5.5
2015-Mar-09 17:33N 39°28' E 000°07'1212.4
2015-Mar-09 16:33N 39°33' E 000°22'1312.8
2015-Mar-09 15:33N 39°40' E 000°36'1313.2
2015-Mar-09 14:33N 39°47' E 000°50'1313.3
2015-Mar-09 13:33N 39°57' E 001°01'1312.9
2015-Mar-09 12:33N 40°07' E 001°11'1313.1
2015-Mar-09 11:33N 40°19' E 001°20'1313.5
2015-Mar-09 10:33N 40°30' E 001°30'1616.4
2015-Mar-09 09:33N 40°44' E 001°41'1716.6
2015-Mar-09 08:33N 40°57' E 001°54'1716.8
2015-Mar-09 07:33N 41°12' E 002°06'10 9.6
2015-Mar-09 06:33N 41°21' E 002°10'0 0.3
2015-Mar-09 05:31N 41°21' E 002°10'0 0.0
2015-Mar-09 04:31N 41°21' E 002°10'0 0.0
2015-Mar-09 03:22N 41°21' E 002°10'0 0.0
2015-Mar-09 02:28N 41°21' E 002°10'0 0.0
2015-Mar-09 01:19N 41°21' E 002°10'0 0.0
2015-Mar-09 00:31N 41°21' E 002°10'0 0.0
2015-Mar-08 21:07N 41°21' E 002°10'0 0.0
2015-Mar-08 19:19N 41°21' E 002°10'0 0.0
2015-Mar-08 18:31N 41°21' E 002°10'0 0.0
2015-Mar-08 17:28N 41°21' E 002°10'0 0.0
2015-Mar-08 16:25N 41°21' E 002°10'0 0.0
2015-Mar-08 15:31N 41°21' E 002°10'0 0.0
2015-Mar-08 14:29N 41°21' E 002°10'0 0.0
2015-Mar-08 13:31N 41°21' E 002°10'5 2.0
2015-Mar-08 11:10N 41°16' E 002°11'2 3.2
2015-Mar-08 10:33N 41°16' E 002°14'9 9.5
2015-Mar-08 09:33N 41°18' E 002°26'1313.2
2015-Mar-08 08:33N 41°24' E 002°42'1713.3
2015-Mar-08 07:17N 41°31' E 003°02'1113.7
2015-Mar-08 06:28N 41°40' E 003°12'1313.8
2015-Mar-08 05:31N 41°49' E 003°25'1414.1
2015-Mar-08 04:32N 41°59' E 003°37'9713.9
2015-Mar-07 21:33N 43°14' E 005°00'1110.8
2015-Mar-07 20:33N 43°24' E 004°54'3 2.5
2015-Mar-07 19:32N 43°25' E 004°51'0 0.0
2015-Mar-07 18:32N 43°25' E 004°51'0 0.0
2015-Mar-07 17:32N 43°25' E 004°51'0 0.0
2015-Mar-07 16:32N 43°25' E 004°51'0 0.0
2015-Mar-07 15:32N 43°25' E 004°51'0 0.0
2015-Mar-07 14:32N 43°25' E 004°51'0 0.0
2015-Mar-07 13:32N 43°25' E 004°51'0 0.0
2015-Mar-07 12:32N 43°25' E 004°51'0 0.0
2015-Mar-07 11:32N 43°25' E 004°51'0 0.0
2015-Mar-07 10:32N 43°25' E 004°51'0 0.0
2015-Mar-07 09:29N 43°25' E 004°51'0 0.0
2015-Mar-07 08:32N 43°25' E 004°51'0 0.0
2015-Mar-07 07:32N 43°25' E 004°51'0 0.0
2015-Mar-07 06:32N 43°25' E 004°51'0 0.0
2015-Mar-07 05:32N 43°25' E 004°51'0 0.0
2015-Mar-07 04:32N 43°25' E 004°51'0 0.0
2015-Mar-07 03:32N 43°25' E 004°51'0 0.0
2015-Mar-07 02:32N 43°25' E 004°51'0 0.0
2015-Mar-07 01:32N 43°25' E 004°51'0 0.0
2015-Mar-07 00:29N 43°25' E 004°51'0 0.0
2015-Mar-06 23:32N 43°25' E 004°51'0 0.0
2015-Mar-06 22:32N 43°25' E 004°51'0 0.0
2015-Mar-06 21:32N 43°25' E 004°51'0 0.0
2015-Mar-06 20:32N 43°25' E 004°51'0 0.0
2015-Mar-06 19:32N 43°25' E 004°51'0 0.0
2015-Mar-06 18:32N 43°25' E 004°51'0 0.0
2015-Mar-06 17:32N 43°25' E 004°51'0 0.0
2015-Mar-06 16:32N 43°25' E 004°51'0 0.0
2015-Mar-06 15:32N 43°25' E 004°51'0 0.0
2015-Mar-06 14:32N 43°25' E 004°51'0 0.0
2015-Mar-06 13:32N 43°25' E 004°51'0 0.0
2015-Mar-06 12:32N 43°25' E 004°51'0 0.0
2015-Mar-06 11:32N 43°25' E 004°51'0 0.0
2015-Mar-06 10:32N 43°25' E 004°51'0 0.0
2015-Mar-06 09:32N 43°25' E 004°51'0 0.0
2015-Mar-06 08:32N 43°25' E 004°51'0 0.0
2015-Mar-06 07:32N 43°25' E 004°51'0 0.0
2015-Mar-06 06:32N 43°25' E 004°51'0 0.0
2015-Mar-06 05:32N 43°25' E 004°51'0 0.0
2015-Mar-06 04:32N 43°25' E 004°51'0 0.0
2015-Mar-06 03:32N 43°25' E 004°51'0 0.0
2015-Mar-06 02:32N 43°25' E 004°51'0 0.0
2015-Mar-06 01:32N 43°25' E 004°51'0 0.0
2015-Mar-06 00:32N 43°25' E 004°51'0 0.0
2015-Mar-05 23:32N 43°25' E 004°51'0 0.0
2015-Mar-05 22:32N 43°25' E 004°51'0 0.0
2015-Mar-05 21:32N 43°25' E 004°51'0 0.0
2015-Mar-05 20:32N 43°25' E 004°51'0 0.0
2015-Mar-05 19:29N 43°25' E 004°51'0 0.0
2015-Mar-05 18:32N 43°25' E 004°51'0 0.0
2015-Mar-05 17:32N 43°25' E 004°51'0 0.0
2015-Mar-05 16:32N 43°25' E 004°51'0 0.0
2015-Mar-05 15:32N 43°25' E 004°51'0 0.0
2015-Mar-05 14:32N 43°25' E 004°51'0 0.0
2015-Mar-05 13:32N 43°25' E 004°51'0 0.0
2015-Mar-05 12:32N 43°25' E 004°51'0 0.0
2015-Mar-05 11:32N 43°25' E 004°51'0 0.0
2015-Mar-05 10:32N 43°25' E 004°51'0 0.0
2015-Mar-05 09:32N 43°25' E 004°51'0 0.0
2015-Mar-05 08:32N 43°25' E 004°51'0 0.0
2015-Mar-05 07:32N 43°25' E 004°51'0 0.0
2015-Mar-05 06:32N 43°25' E 004°51'0 0.0
2015-Mar-05 05:32N 43°25' E 004°51'0 0.0
2015-Mar-05 04:32N 43°25' E 004°51'0 0.0
2015-Mar-05 03:32N 43°25' E 004°51'0 0.0
2015-Mar-05 02:32N 43°25' E 004°51'0 0.0
2015-Mar-05 01:32N 43°25' E 004°51'0 0.0
2015-Mar-05 00:32N 43°25' E 004°51'0 0.0
2015-Mar-04 23:32N 43°25' E 004°51'0 0.0
2015-Mar-04 22:32N 43°25' E 004°51'0 0.0
2015-Mar-04 21:32N 43°25' E 004°51'0 0.0
2015-Mar-04 20:32N 43°25' E 004°51'0 0.0
2015-Mar-04 19:32N 43°25' E 004°51'0 0.0
2015-Mar-04 18:32N 43°25' E 004°51'0 0.0
2015-Mar-04 17:32N 43°25' E 004°51'0 0.0
2015-Mar-04 16:32N 43°25' E 004°51'0 0.0
2015-Mar-04 15:32N 43°25' E 004°51'0 0.0
2015-Mar-04 14:32N 43°25' E 004°51'0 0.0
2015-Mar-04 13:32N 43°25' E 004°51'0 0.0
2015-Mar-04 12:32N 43°25' E 004°51'0 0.0
2015-Mar-04 11:32N 43°25' E 004°51'0 0.0
2015-Mar-04 10:32N 43°25' E 004°51'0 0.0
2015-Mar-04 09:32N 43°25' E 004°51'0 0.0
2015-Mar-04 08:32N 43°25' E 004°51'0 0.0
2015-Mar-04 07:32N 43°25' E 004°51'0 0.0
2015-Mar-04 06:32N 43°25' E 004°51'0 0.0
2015-Mar-04 05:32N 43°25' E 004°51'0 0.0
2015-Mar-04 04:32N 43°25' E 004°51'0 0.0
2015-Mar-04 03:32N 43°25' E 004°51'0 0.0
2015-Mar-04 02:32N 43°25' E 004°51'0 0.0
2015-Mar-04 01:29N 43°25' E 004°51'0 0.0
2015-Mar-04 00:32N 43°25' E 004°51'0 0.0
2015-Mar-03 23:32N 43°25' E 004°51'0 0.0
2015-Mar-03 22:32N 43°25' E 004°51'0 0.0
2015-Mar-03 21:32N 43°25' E 004°51'0 0.0
2015-Mar-03 20:32N 43°25' E 004°51'0 0.0
2015-Mar-03 19:32N 43°25' E 004°51'0 0.0
2015-Mar-03 18:32N 43°25' E 004°51'0 0.0
2015-Mar-03 17:32N 43°25' E 004°51'0 0.0
2015-Mar-03 16:32N 43°25' E 004°51'0 0.0
2015-Mar-03 15:32N 43°25' E 004°51'1 0.8
2015-Mar-03 14:33N 43°24' E 004°51'7 7.4
2015-Mar-03 13:33N 43°20' E 004°59'4 4.5
2015-Mar-03 12:34N 43°15' E 005°01'9 8.5
2015-Mar-03 11:32N 43°08' E 005°06'1 1.0
2015-Mar-03 10:33N 43°07' E 005°06'1313.1
2015-Mar-03 09:33N 42°56' E 005°17'  
Track history (hours):
 
Tides and Currents Weather Stations Pressure Air Temp Water Temp Dewpoint Dewpoint Depression Visibility Wind Speed Wind Dir Waves Ship Positions

Nyk Orpheus

Last reported at 2015-Mar-13 02:33 UTC. Time now 2015-Mar-30 20:08 UTC.
Position N 36°29' E 013°58'.
Warning: this ship's position is 17 days out of date.

Length 336 m; draft 11.9 m.

Type: Ship. MMSI: 432657000.

Date/timePositionNaut miles runAvg speedWind from/ knotsBaromVisibWave heightAir tempDewpointWater temp
2015-Mar-13 02:33N 36°29' E 013°58'1818.3
2015-Mar-13 01:33N 36°35' E 013°36'40718.3
2015-Mar-12 03:18N 38°33' E 005°25'1418.1
2015-Mar-12 02:31N 38°36' E 005°08'3818.7
2015-Mar-12 00:29N 38°44' E 004°20'1819.2
2015-Mar-11 23:33N 38°48' E 003°58'1918.6
2015-Mar-11 22:33N 38°52' E 003°34'1918.7
2015-Mar-11 21:33N 38°58' E 003°11'1818.5
2015-Mar-11 20:33N 38°59' E 002°48'1918.6
2015-Mar-11 19:33N 39°03' E 002°24'1818.3
2015-Mar-11 18:33N 39°07' E 002°01'1918.5
2015-Mar-11 17:33N 39°11' E 001°38'1918.8
2015-Mar-11 16:33N 39°14' E 001°14'1818.3
2015-Mar-11 15:33N 39°17' E 000°51'1917.9
2015-Mar-11 14:30N 39°20' E 000°26'1717.8
2015-Mar-11 13:33N 39°23' E 000°05'1515.0
2015-Mar-11 12:34N 39°25' W 000°14'4 4.1
2015-Mar-11 11:34N 39°27' W 000°19'0 0.0
2015-Mar-11 10:32N 39°27' W 000°19'0 0.0
2015-Mar-11 09:32N 39°27' W 000°19'0 0.0
2015-Mar-11 08:32N 39°27' W 000°19'0 0.0
2015-Mar-11 07:32N 39°27' W 000°19'0 0.0
2015-Mar-11 06:32N 39°27' W 000°19'0 0.0
2015-Mar-11 05:32N 39°27' W 000°19'0 0.0
2015-Mar-11 04:32N 39°27' W 000°19'0 0.0
2015-Mar-11 03:32N 39°27' W 000°19'0 0.0
2015-Mar-11 02:32N 39°27' W 000°19'0 0.0
2015-Mar-11 01:32N 39°27' W 000°19'0 0.0
2015-Mar-11 00:32N 39°27' W 000°19'0 0.1
2015-Mar-10 23:32N 39°27' W 000°19'0 0.1
2015-Mar-10 22:32N 39°27' W 000°19'0 0.0
2015-Mar-10 21:32N 39°27' W 000°19'0 0.0
2015-Mar-10 20:32N 39°27' W 000°19'0 0.0
2015-Mar-10 19:32N 39°27' W 000°19'0 0.0
2015-Mar-10 18:32N 39°27' W 000°19'0 0.0
2015-Mar-10 17:32N 39°27' W 000°19'0 0.0
2015-Mar-10 16:32N 39°27' W 000°19'0 0.0
2015-Mar-10 15:32N 39°27' W 000°19'0 0.0
2015-Mar-10 14:32N 39°27' W 000°19'1 1.1
2015-Mar-10 13:33N 39°26' W 000°18'2 2.1
2015-Mar-10 12:33N 39°25' W 000°16'6 6.0
2015-Mar-10 11:33N 39°22' W 000°09'4 2.1
2015-Mar-10 09:28N 39°20' W 000°04'1 0.6
2015-Mar-10 08:10N 39°21' W 000°04'0 0.6
2015-Mar-10 07:31N 39°21' W 000°04'1 0.7
2015-Mar-10 06:25N 39°22' W 000°04'4 0.6
2015-Mar-09 23:16N 39°25' W 000°02'0 0.5
2015-Mar-09 22:31N 39°26' W 000°01'1 0.5
2015-Mar-09 21:10N 39°26' W 000°01'0 0.4
2015-Mar-09 20:17N 39°26' W 000°00'0 0.3
2015-Mar-09 19:04N 39°26' W 000°00'0 0.9
2015-Mar-09 18:31N 39°27' E 000°00'5 5.5
2015-Mar-09 17:33N 39°28' E 000°07'1212.4
2015-Mar-09 16:33N 39°33' E 000°22'1312.8
2015-Mar-09 15:33N 39°40' E 000°36'1313.2
2015-Mar-09 14:33N 39°47' E 000°50'1313.3
2015-Mar-09 13:33N 39°57' E 001°01'1312.9
2015-Mar-09 12:33N 40°07' E 001°11'1313.1
2015-Mar-09 11:33N 40°19' E 001°20'1313.5
2015-Mar-09 10:33N 40°30' E 001°30'1616.4
2015-Mar-09 09:33N 40°44' E 001°41'1716.6
2015-Mar-09 08:33N 40°57' E 001°54'1716.8
2015-Mar-09 07:33N 41°12' E 002°06'10 9.6
2015-Mar-09 06:33N 41°21' E 002°10'0 0.3
2015-Mar-09 05:31N 41°21' E 002°10'0 0.0
2015-Mar-09 04:31N 41°21' E 002°10'0 0.0
2015-Mar-09 03:22N 41°21' E 002°10'0 0.0
2015-Mar-09 02:28N 41°21' E 002°10'0 0.0
2015-Mar-09 01:19N 41°21' E 002°10'0 0.0
2015-Mar-09 00:31N 41°21' E 002°10'0 0.0
2015-Mar-08 21:07N 41°21' E 002°10'0 0.0
2015-Mar-08 19:19N 41°21' E 002°10'0 0.0
2015-Mar-08 18:31N 41°21' E 002°10'0 0.0
2015-Mar-08 17:28N 41°21' E 002°10'0 0.0
2015-Mar-08 16:25N 41°21' E 002°10'0 0.0
2015-Mar-08 15:31N 41°21' E 002°10'0 0.0
2015-Mar-08 14:29N 41°21' E 002°10'0 0.0
2015-Mar-08 13:31N 41°21' E 002°10'5 2.0
2015-Mar-08 11:10N 41°16' E 002°11'2 3.2
2015-Mar-08 10:33N 41°16' E 002°14'9 9.5
2015-Mar-08 09:33N 41°18' E 002°26'1313.2
2015-Mar-08 08:33N 41°24' E 002°42'1713.3
2015-Mar-08 07:17N 41°31' E 003°02'1113.7
2015-Mar-08 06:28N 41°40' E 003°12'1313.8
2015-Mar-08 05:31N 41°49' E 003°25'1414.1
2015-Mar-08 04:32N 41°59' E 003°37'9713.9
2015-Mar-07 21:33N 43°14' E 005°00'1110.8
2015-Mar-07 20:33N 43°24' E 004°54'3 2.5
2015-Mar-07 19:32N 43°25' E 004°51'0 0.0
2015-Mar-07 18:32N 43°25' E 004°51'0 0.0
2015-Mar-07 17:32N 43°25' E 004°51'0 0.0
2015-Mar-07 16:32N 43°25' E 004°51'0 0.0
2015-Mar-07 15:32N 43°25' E 004°51'0 0.0
2015-Mar-07 14:32N 43°25' E 004°51'0 0.0
2015-Mar-07 13:32N 43°25' E 004°51'0 0.0
2015-Mar-07 12:32N 43°25' E 004°51'0 0.0
2015-Mar-07 11:32N 43°25' E 004°51'0 0.0
2015-Mar-07 10:32N 43°25' E 004°51'0 0.0
2015-Mar-07 09:29N 43°25' E 004°51'0 0.0
2015-Mar-07 08:32N 43°25' E 004°51'0 0.0
2015-Mar-07 07:32N 43°25' E 004°51'0 0.0
2015-Mar-07 06:32N 43°25' E 004°51'0 0.0
2015-Mar-07 05:32N 43°25' E 004°51'0 0.0
2015-Mar-07 04:32N 43°25' E 004°51'0 0.0
2015-Mar-07 03:32N 43°25' E 004°51'0 0.0
2015-Mar-07 02:32N 43°25' E 004°51'0 0.0
2015-Mar-07 01:32N 43°25' E 004°51'0 0.0
2015-Mar-07 00:29N 43°25' E 004°51'0 0.0
2015-Mar-06 23:32N 43°25' E 004°51'0 0.0
2015-Mar-06 22:32N 43°25' E 004°51'0 0.0
2015-Mar-06 21:32N 43°25' E 004°51'0 0.0
2015-Mar-06 20:32N 43°25' E 004°51'0 0.0
2015-Mar-06 19:32N 43°25' E 004°51'0 0.0
2015-Mar-06 18:32N 43°25' E 004°51'0 0.0
2015-Mar-06 17:32N 43°25' E 004°51'0 0.0
2015-Mar-06 16:32N 43°25' E 004°51'0 0.0
2015-Mar-06 15:32N 43°25' E 004°51'0 0.0
2015-Mar-06 14:32N 43°25' E 004°51'0 0.0
2015-Mar-06 13:32N 43°25' E 004°51'0 0.0
2015-Mar-06 12:32N 43°25' E 004°51'0 0.0
2015-Mar-06 11:32N 43°25' E 004°51'0 0.0
2015-Mar-06 10:32N 43°25' E 004°51'0 0.0
2015-Mar-06 09:32N 43°25' E 004°51'0 0.0
2015-Mar-06 08:32N 43°25' E 004°51'0 0.0
2015-Mar-06 07:32N 43°25' E 004°51'0 0.0
2015-Mar-06 06:32N 43°25' E 004°51'0 0.0
2015-Mar-06 05:32N 43°25' E 004°51'0 0.0
2015-Mar-06 04:32N 43°25' E 004°51'0 0.0
2015-Mar-06 03:32N 43°25' E 004°51'0 0.0
2015-Mar-06 02:32N 43°25' E 004°51'0 0.0
2015-Mar-06 01:32N 43°25' E 004°51'0 0.0
2015-Mar-06 00:32N 43°25' E 004°51'0 0.0
2015-Mar-05 23:32N 43°25' E 004°51'0 0.0
2015-Mar-05 22:32N 43°25' E 004°51'0 0.0
2015-Mar-05 21:32N 43°25' E 004°51'0 0.0
2015-Mar-05 20:32N 43°25' E 004°51'0 0.0
2015-Mar-05 19:29N 43°25' E 004°51'0 0.0
2015-Mar-05 18:32N 43°25' E 004°51'0 0.0
2015-Mar-05 17:32N 43°25' E 004°51'0 0.0
2015-Mar-05 16:32N 43°25' E 004°51'0 0.0
2015-Mar-05 15:32N 43°25' E 004°51'0 0.0
2015-Mar-05 14:32N 43°25' E 004°51'0 0.0
2015-Mar-05 13:32N 43°25' E 004°51'0 0.0
2015-Mar-05 12:32N 43°25' E 004°51'0 0.0
2015-Mar-05 11:32N 43°25' E 004°51'0 0.0
2015-Mar-05 10:32N 43°25' E 004°51'0 0.0
2015-Mar-05 09:32N 43°25' E 004°51'0 0.0
2015-Mar-05 08:32N 43°25' E 004°51'0 0.0
2015-Mar-05 07:32N 43°25' E 004°51'0 0.0
2015-Mar-05 06:32N 43°25' E 004°51'0 0.0
2015-Mar-05 05:32N 43°25' E 004°51'0 0.0
2015-Mar-05 04:32N 43°25' E 004°51'0 0.0
2015-Mar-05 03:32N 43°25' E 004°51'0 0.0
2015-Mar-05 02:32N 43°25' E 004°51'0 0.0
2015-Mar-05 01:32N 43°25' E 004°51'0 0.0
2015-Mar-05 00:32N 43°25' E 004°51'0 0.0
2015-Mar-04 23:32N 43°25' E 004°51'0 0.0
2015-Mar-04 22:32N 43°25' E 004°51'0 0.0
2015-Mar-04 21:32N 43°25' E 004°51'0 0.0
2015-Mar-04 20:32N 43°25' E 004°51'0 0.0
2015-Mar-04 19:32N 43°25' E 004°51'0 0.0
2015-Mar-04 18:32N 43°25' E 004°51'0 0.0
2015-Mar-04 17:32N 43°25' E 004°51'0 0.0
2015-Mar-04 16:32N 43°25' E 004°51'0 0.0
2015-Mar-04 15:32N 43°25' E 004°51'0 0.0
2015-Mar-04 14:32N 43°25' E 004°51'0 0.0
2015-Mar-04 13:32N 43°25' E 004°51'0 0.0
2015-Mar-04 12:32N 43°25' E 004°51'0 0.0
2015-Mar-04 11:32N 43°25' E 004°51'0 0.0
2015-Mar-04 10:32N 43°25' E 004°51'0 0.0
2015-Mar-04 09:32N 43°25' E 004°51'0 0.0
2015-Mar-04 08:32N 43°25' E 004°51'0 0.0
2015-Mar-04 07:32N 43°25' E 004°51'0 0.0
2015-Mar-04 06:32N 43°25' E 004°51'0 0.0
2015-Mar-04 05:32N 43°25' E 004°51'0 0.0
2015-Mar-04 04:32N 43°25' E 004°51'0 0.0
2015-Mar-04 03:32N 43°25' E 004°51'0 0.0
2015-Mar-04 02:32N 43°25' E 004°51'0 0.0
2015-Mar-04 01:29N 43°25' E 004°51'0 0.0
2015-Mar-04 00:32N 43°25' E 004°51'0 0.0
2015-Mar-03 23:32N 43°25' E 004°51'0 0.0
2015-Mar-03 22:32N 43°25' E 004°51'0 0.0
2015-Mar-03 21:32N 43°25' E 004°51'0 0.0
2015-Mar-03 20:32N 43°25' E 004°51'0 0.0
2015-Mar-03 19:32N 43°25' E 004°51'0 0.0
2015-Mar-03 18:32N 43°25' E 004°51'0 0.0
2015-Mar-03 17:32N 43°25' E 004°51'0 0.0
2015-Mar-03 16:32N 43°25' E 004°51'0 0.0
2015-Mar-03 15:32N 43°25' E 004°51'1 0.8
2015-Mar-03 14:33N 43°24' E 004°51'7 7.4
2015-Mar-03 13:33N 43°20' E 004°59'4 4.5
2015-Mar-03 12:34N 43°15' E 005°01'9 8.5
2015-Mar-03 11:32N 43°08' E 005°06'1 1.0
2015-Mar-03 10:33N 43°07' E 005°06'1313.1
2015-Mar-03 09:33N 42°56' E 005°17'  

Dump ship's entire track history